createdAt,value
2024-02-03T00:00:14.432Z,4.47
2024-02-03T00:02:41.106Z,4.33
2024-02-03T00:05:08.283Z,4.73
2024-02-03T00:07:35.208Z,4.00
2024-02-03T00:10:02.160Z,4.33
2024-02-03T00:12:29.822Z,4.73
2024-02-03T00:14:57.135Z,4.73
2024-02-03T00:17:24.643Z,4.57
2024-02-03T00:19:53.758Z,4.80
2024-02-03T00:22:20.931Z,4.47
2024-02-03T00:24:48.040Z,5.47
2024-02-03T00:27:14.913Z,5.40
2024-02-03T00:29:41.710Z,4.53
2024-02-03T00:32:08.498Z,5.17
2024-02-03T00:34:35.463Z,4.53
2024-02-03T00:37:02.845Z,4.90
2024-02-03T00:39:29.733Z,5.10
2024-02-03T00:41:56.482Z,4.57
2024-02-03T00:44:23.216Z,5.00
2024-02-03T00:46:49.937Z,4.33
2024-02-03T00:49:16.692Z,5.40
2024-02-03T00:51:43.477Z,4.87
2024-02-03T00:54:10.230Z,5.00
2024-02-03T00:56:37.119Z,4.77
2024-02-03T00:59:03.811Z,4.90
2024-02-03T01:01:30.583Z,5.23
2024-02-03T01:03:58.323Z,4.73
2024-02-03T01:06:25.055Z,4.50
2024-02-03T01:08:51.723Z,4.70
2024-02-03T01:11:18.464Z,4.63
2024-02-03T01:13:46.141Z,4.73
2024-02-03T01:16:13.126Z,4.33
2024-02-03T01:18:40.057Z,4.73
2024-02-03T01:21:08.165Z,4.17
2024-02-03T01:23:34.936Z,4.47
2024-02-03T01:26:01.620Z,4.93
2024-02-03T01:28:28.275Z,5.47
2024-02-03T01:30:55.156Z,5.20
2024-02-03T01:33:21.993Z,4.57
2024-02-03T01:35:48.778Z,4.97
2024-02-03T01:38:15.442Z,4.50
2024-02-03T01:40:42.130Z,4.83
2024-02-03T01:43:12.612Z,4.73
2024-02-03T01:45:39.437Z,3.87
2024-02-03T01:48:07.499Z,4.80
2024-02-03T01:50:34.356Z,5.20
2024-02-03T01:53:03.112Z,4.80
2024-02-03T01:55:32.043Z,4.43
2024-02-03T01:58:02.490Z,4.43
2024-02-03T02:00:30.228Z,3.80
2024-02-03T02:02:57.491Z,4.53
2024-02-03T02:05:25.616Z,4.57
2024-02-03T02:07:52.292Z,4.60
2024-02-03T02:10:22.208Z,5.13
2024-02-03T02:12:49.194Z,4.50
2024-02-03T02:15:16.123Z,4.40
2024-02-03T02:17:42.937Z,4.27
2024-02-03T02:20:13.268Z,5.30
2024-02-03T02:22:40.178Z,4.10
2024-02-03T02:25:07.234Z,4.83
2024-02-03T02:27:34.586Z,4.77
2024-02-03T02:30:01.372Z,4.63
2024-02-03T02:32:28.207Z,4.77
2024-02-03T02:34:55.054Z,4.83
2024-02-03T02:37:21.760Z,4.80
2024-02-03T02:39:48.681Z,4.73
2024-02-03T02:42:15.492Z,4.20
2024-02-03T02:44:42.245Z,4.73
2024-02-03T02:47:09.082Z,4.10
2024-02-03T02:49:35.908Z,4.20
2024-02-03T02:52:02.688Z,4.27
2024-02-03T02:54:29.387Z,4.57
2024-02-03T02:56:56.167Z,3.83
2024-02-03T02:59:22.995Z,3.83
2024-02-03T03:01:49.889Z,4.13
2024-02-03T03:04:16.814Z,3.67
2024-02-03T03:06:43.561Z,4.20
2024-02-03T03:09:10.354Z,3.80
2024-02-03T03:11:37.661Z,3.43
2024-02-03T03:14:07.117Z,3.40
2024-02-03T03:16:33.914Z,3.97
2024-02-03T03:19:00.742Z,4.50
2024-02-03T03:21:27.572Z,4.10
2024-02-03T03:23:55.049Z,3.20
2024-02-03T03:26:21.872Z,3.43
2024-02-03T03:28:48.513Z,3.30
2024-02-03T03:31:15.201Z,3.43
2024-02-03T03:33:42.030Z,3.60
2024-02-03T03:36:10.395Z,3.10
2024-02-03T03:38:43.630Z,3.30
2024-02-03T03:41:11.306Z,2.80
2024-02-03T03:43:38.638Z,3.23
2024-02-03T03:46:07.504Z,3.43
2024-02-03T03:48:34.310Z,2.97
2024-02-03T03:51:01.095Z,3.27
2024-02-03T03:53:27.765Z,3.00
2024-02-03T03:55:54.450Z,3.27
2024-02-03T03:58:21.271Z,3.00
2024-02-03T04:00:48.622Z,2.80
2024-02-03T04:03:15.382Z,2.97
2024-02-03T04:05:42.239Z,2.97
2024-02-03T04:08:09.147Z,2.80
2024-02-03T04:10:35.845Z,2.33
2024-02-03T04:13:02.545Z,2.63
2024-02-03T04:15:30.387Z,3.13
2024-02-03T04:17:58.455Z,2.47
2024-02-03T04:20:26.273Z,2.60
2024-02-03T04:22:53.021Z,2.53
2024-02-03T04:25:19.670Z,2.23
2024-02-03T04:27:46.419Z,2.63
2024-02-03T04:30:22.521Z,2.53
2024-02-03T04:32:51.834Z,2.03
2024-02-03T04:35:18.523Z,2.37
2024-02-03T04:37:45.374Z,2.27
2024-02-03T04:40:12.441Z,2.47
2024-02-03T04:42:39.524Z,2.80
2024-02-03T04:45:06.863Z,2.63
2024-02-03T04:47:33.706Z,2.73
2024-02-03T04:50:02.168Z,2.47
2024-02-03T04:52:29.430Z,2.53
2024-02-03T04:54:56.215Z,2.57
2024-02-03T04:57:23.114Z,2.37
2024-02-03T04:59:49.953Z,2.40
2024-02-03T05:02:16.637Z,2.70
2024-02-03T05:04:43.732Z,2.47
2024-02-03T05:07:10.501Z,2.43
2024-02-03T05:09:37.245Z,2.27
2024-02-03T05:12:04.169Z,2.30
2024-02-03T05:14:30.860Z,2.50
2024-02-03T05:16:57.554Z,2.57
2024-02-03T05:19:26.870Z,2.73
2024-02-03T05:21:53.773Z,2.10
2024-02-03T05:24:20.816Z,2.03
2024-02-03T05:26:47.507Z,2.57
2024-02-03T05:29:14.154Z,2.83
2024-02-03T05:31:40.847Z,2.57
2024-02-03T05:34:07.652Z,2.47
2024-02-03T05:36:34.524Z,2.93
2024-02-03T05:39:01.340Z,2.37
2024-02-03T05:41:28.010Z,2.70
2024-02-03T05:43:54.685Z,2.77
2024-02-03T05:46:21.353Z,2.67
2024-02-03T05:48:48.159Z,2.50
2024-02-03T05:51:15.501Z,2.53
2024-02-03T05:53:43.052Z,2.67
2024-02-03T05:56:09.771Z,2.40
2024-02-03T05:58:36.437Z,2.67
2024-02-03T06:01:03.321Z,2.50
2024-02-03T06:03:31.147Z,2.43
2024-02-03T06:06:13.251Z,2.00
2024-02-03T06:08:44.456Z,2.20
2024-02-03T06:11:11.141Z,2.17
2024-02-03T06:13:37.837Z,2.27
2024-02-03T06:16:04.892Z,2.00
2024-02-03T06:18:31.754Z,2.30
2024-02-03T06:20:58.511Z,2.37
2024-02-03T06:23:25.181Z,2.33
2024-02-03T06:25:51.855Z,2.67
2024-02-03T06:28:19.318Z,2.70
2024-02-03T06:30:46.102Z,2.77
2024-02-03T06:33:12.976Z,2.17
2024-02-03T06:35:42.200Z,2.30
2024-02-03T06:38:09.214Z,2.33
2024-02-03T06:40:35.956Z,2.67
2024-02-03T06:43:03.221Z,2.10
2024-02-03T06:45:29.906Z,2.40
2024-02-03T06:47:56.810Z,2.20
2024-02-03T06:50:23.666Z,2.23
2024-02-03T06:52:50.404Z,1.77
2024-02-03T06:55:17.254Z,2.17
2024-02-03T06:57:44.111Z,1.97
2024-02-03T07:00:11.692Z,2.77
2024-02-03T07:02:38.525Z,2.27
2024-02-03T07:05:05.923Z,2.70
2024-02-03T07:07:32.617Z,2.00
2024-02-03T07:10:02.054Z,2.00
2024-02-03T07:12:29.025Z,2.30
2024-02-03T07:14:55.787Z,2.30
2024-02-03T07:17:22.815Z,2.10
2024-02-03T07:19:49.614Z,2.33
2024-02-03T07:22:16.398Z,2.30
2024-02-03T07:24:43.147Z,2.27
2024-02-03T07:27:10.722Z,2.43
2024-02-03T07:29:37.647Z,2.13
2024-02-03T07:32:04.744Z,2.47
2024-02-03T07:34:31.750Z,1.97
2024-02-03T07:36:58.788Z,2.00
2024-02-03T07:39:25.691Z,2.53
2024-02-03T07:41:52.374Z,2.33
2024-02-03T07:44:19.004Z,2.53
2024-02-03T07:46:45.658Z,2.47
2024-02-03T07:49:12.376Z,2.50
2024-02-03T07:51:39.108Z,2.80
2024-02-03T07:54:05.903Z,2.33
2024-02-03T07:56:32.607Z,2.63
2024-02-03T07:58:59.253Z,2.67
2024-02-03T08:01:27.956Z,2.60
2024-02-03T08:03:54.854Z,2.67
2024-02-03T08:06:21.979Z,2.73
2024-02-03T08:08:48.633Z,2.67
2024-02-03T08:11:15.286Z,2.47
2024-02-03T08:13:41.927Z,2.23
2024-02-03T08:16:09.244Z,3.13
2024-02-03T08:18:36.045Z,2.83
2024-02-03T08:21:03.672Z,2.10
2024-02-03T08:23:30.322Z,2.70
2024-02-03T08:25:56.979Z,3.00
2024-02-03T08:28:23.645Z,2.77
2024-02-03T08:30:50.444Z,2.63
2024-02-03T08:33:17.385Z,2.37
2024-02-03T08:35:44.458Z,2.60
2024-02-03T08:38:11.327Z,2.53
2024-02-03T08:40:38.037Z,2.90
2024-02-03T08:43:05.489Z,3.00
2024-02-03T08:45:32.214Z,1.93
2024-02-03T08:47:58.967Z,3.00
2024-02-03T08:50:26.073Z,2.90
2024-02-03T08:52:52.744Z,2.60
2024-02-03T08:55:19.371Z,2.33
2024-02-03T08:57:46.076Z,2.17
2024-02-03T09:00:13.419Z,2.50
2024-02-03T09:02:40.128Z,2.43
2024-02-03T09:05:08.284Z,2.57
2024-02-03T09:07:36.238Z,2.53
2024-02-03T09:10:05.674Z,2.07
2024-02-03T09:12:32.423Z,1.90
2024-02-03T09:14:59.155Z,2.53
2024-02-03T09:17:25.861Z,2.37
2024-02-03T09:19:52.818Z,1.93
2024-02-03T09:22:19.604Z,2.47
2024-02-03T09:24:46.466Z,2.47
2024-02-03T09:27:13.305Z,2.70
2024-02-03T09:29:44.191Z,2.80
2024-02-03T09:32:10.934Z,2.40
2024-02-03T09:34:37.923Z,2.47
2024-02-03T09:39:38.456Z,2.10
2024-02-03T09:42:06.042Z,2.23
2024-02-03T09:44:32.860Z,1.90
2024-02-03T09:46:59.627Z,2.53
2024-02-03T09:49:26.395Z,2.40
2024-02-03T09:51:53.909Z,2.30
2024-02-03T09:54:21.503Z,2.13
2024-02-03T09:56:48.474Z,1.93
2024-02-03T09:59:15.893Z,2.20
2024-02-03T10:01:49.014Z,2.27
2024-02-03T10:04:16.369Z,2.67
2024-02-03T10:06:49.138Z,2.40
2024-02-03T10:09:25.400Z,2.37
2024-02-03T10:11:52.531Z,2.23
2024-02-03T10:14:19.671Z,1.90
2024-02-03T10:16:47.142Z,1.90
2024-02-03T10:19:13.883Z,2.00
2024-02-03T10:21:40.764Z,2.30
2024-02-03T10:24:07.624Z,1.83
2024-02-03T10:26:34.714Z,1.60
2024-02-03T10:29:01.623Z,1.83
2024-02-03T10:31:28.471Z,2.33
2024-02-03T10:33:58.511Z,2.30
2024-02-03T10:36:25.235Z,2.03
2024-02-03T10:38:51.948Z,2.30
2024-02-03T10:41:21.179Z,2.20
2024-02-03T10:43:52.713Z,1.83
2024-02-03T10:46:22.224Z,1.80
2024-02-03T10:48:51.252Z,1.90
2024-02-03T10:51:22.457Z,2.17
2024-02-03T10:54:05.429Z,2.07
2024-02-03T10:56:36.430Z,1.80
2024-02-03T10:59:06.782Z,2.00
2024-02-03T11:01:42.000Z,1.47
2024-02-03T11:04:08.782Z,2.00
2024-02-03T11:06:36.404Z,1.70
2024-02-03T11:09:30.660Z,1.93
2024-02-03T11:11:58.314Z,1.73
2024-02-03T11:14:28.179Z,1.47
2024-02-03T11:16:58.448Z,2.07
2024-02-03T11:19:28.214Z,2.00
2024-02-03T11:22:04.571Z,1.83
2024-02-03T11:24:32.070Z,1.57
2024-02-03T11:27:00.549Z,2.00
2024-02-03T11:29:28.342Z,1.90
2024-02-03T11:32:05.916Z,1.67
2024-02-03T11:34:35.743Z,1.83
2024-02-03T11:37:03.430Z,2.13
2024-02-03T11:39:38.068Z,1.93
2024-02-03T11:42:07.488Z,2.10
2024-02-03T11:44:52.509Z,2.00
2024-02-03T11:47:23.075Z,1.83
2024-02-03T11:49:51.896Z,2.13
2024-02-03T11:52:20.338Z,2.07
2024-02-03T11:54:49.492Z,2.00
2024-02-03T11:57:16.406Z,2.20
2024-02-03T11:59:43.146Z,1.63
2024-02-03T12:02:11.168Z,2.07
2024-02-03T12:04:37.880Z,1.93
2024-02-03T12:07:04.837Z,2.45
2024-02-03T12:09:31.645Z,1.90
2024-02-03T12:12:00.004Z,1.90
2024-02-03T12:14:29.894Z,1.93
2024-02-03T12:16:58.536Z,1.80
2024-02-03T12:19:26.171Z,1.70
2024-02-03T12:21:53.037Z,2.10
2024-02-03T12:24:19.946Z,1.80
2024-02-03T12:26:46.894Z,1.80
2024-02-03T12:29:13.923Z,1.80
2024-02-03T12:31:41.245Z,2.10
2024-02-03T12:34:08.271Z,1.67
2024-02-03T12:36:35.579Z,1.53
2024-02-03T12:39:03.420Z,1.63
2024-02-03T12:41:30.143Z,1.83
2024-02-03T12:43:58.230Z,1.83
2024-02-03T12:46:24.890Z,1.63
2024-02-03T12:48:52.523Z,1.83
2024-02-03T12:51:19.727Z,2.30
2024-02-03T12:53:46.687Z,1.63
2024-02-03T12:56:13.826Z,1.93
2024-02-03T12:58:40.513Z,1.90
2024-02-03T13:01:07.258Z,1.50
2024-02-03T13:03:34.197Z,2.10
2024-02-03T13:06:01.693Z,1.80
2024-02-03T13:08:28.566Z,1.83
2024-02-03T13:10:55.274Z,2.10
2024-02-03T13:13:22.210Z,2.03
2024-02-03T13:15:48.957Z,1.50
2024-02-03T13:18:15.640Z,1.93
2024-02-03T13:20:43.202Z,1.60
2024-02-03T13:23:09.938Z,1.97
2024-02-03T13:25:36.928Z,2.07
2024-02-03T13:28:04.660Z,1.70
2024-02-03T13:30:31.964Z,2.13
2024-02-03T13:32:58.744Z,1.97
2024-02-03T13:35:27.324Z,1.53
2024-02-03T13:37:54.011Z,1.70
2024-02-03T13:40:20.662Z,1.97
2024-02-03T13:42:52.552Z,1.70
2024-02-03T13:45:19.983Z,1.80
2024-02-03T13:47:51.372Z,1.97
2024-02-03T13:50:19.739Z,1.60
2024-02-03T13:52:47.041Z,1.83
2024-02-03T13:55:14.513Z,1.53
2024-02-03T13:57:41.357Z,2.00
2024-02-03T14:00:08.954Z,1.77
2024-02-03T14:02:38.533Z,2.17
2024-02-03T14:05:06.226Z,1.20
2024-02-03T14:07:33.590Z,1.30
2024-02-03T14:10:01.335Z,1.40
2024-02-03T14:12:28.527Z,1.40
2024-02-03T14:14:55.248Z,1.93
2024-02-03T14:17:21.975Z,1.60
2024-02-03T14:19:48.830Z,1.60
2024-02-03T14:22:15.824Z,1.60
2024-02-03T14:24:42.839Z,1.63
2024-02-03T14:27:10.153Z,1.40
2024-02-03T14:29:36.913Z,1.77
2024-02-03T14:32:04.863Z,1.70
2024-02-03T14:34:31.656Z,1.23
2024-02-03T14:36:58.527Z,1.77
2024-02-03T14:39:25.496Z,1.50
2024-02-03T14:41:52.822Z,1.37
2024-02-03T14:44:20.392Z,1.20
2024-02-03T14:46:47.710Z,1.90
2024-02-03T14:49:14.736Z,1.63
2024-02-03T14:51:41.820Z,1.53
2024-02-03T14:54:08.809Z,1.60
2024-02-03T14:56:35.493Z,1.60
2024-02-03T14:59:02.351Z,1.50
2024-02-03T15:01:29.179Z,1.30
2024-02-03T15:03:55.891Z,1.40
2024-02-03T15:06:22.610Z,1.60
2024-02-03T15:08:49.380Z,1.43
2024-02-03T15:11:16.118Z,1.20
2024-02-03T15:13:42.787Z,1.30
2024-02-03T15:16:09.424Z,1.20
2024-02-03T15:18:36.339Z,1.40
2024-02-03T15:21:03.191Z,1.17
2024-02-03T15:23:29.914Z,1.30
2024-02-03T15:25:57.081Z,1.50
2024-02-03T15:28:26.844Z,0.97
2024-02-03T15:30:55.639Z,1.03
2024-02-03T15:33:22.508Z,1.47
2024-02-03T15:35:49.356Z,1.20
2024-02-03T15:38:16.054Z,1.10
2024-02-03T15:40:42.708Z,1.17
2024-02-03T15:43:09.434Z,1.13
2024-02-03T15:45:36.729Z,1.13
2024-02-03T15:48:04.379Z,1.40
2024-02-03T15:50:33.862Z,1.20
2024-02-03T15:53:00.650Z,1.20
2024-02-03T15:55:29.541Z,1.00
2024-02-03T15:57:56.813Z,1.70
2024-02-03T16:00:24.071Z,1.40
2024-02-03T16:02:51.020Z,0.90
2024-02-03T16:05:17.734Z,0.77
2024-02-03T16:07:44.465Z,0.93
2024-02-03T16:10:13.830Z,1.10
2024-02-03T16:12:41.407Z,0.83
2024-02-03T16:15:09.569Z,0.80
2024-02-03T16:17:36.327Z,1.00
2024-02-03T16:20:05.844Z,0.73
2024-02-03T16:22:33.458Z,0.97
2024-02-03T16:25:00.926Z,0.93
2024-02-03T16:27:28.513Z,1.30
2024-02-03T16:29:55.563Z,1.33
2024-02-03T16:32:22.268Z,0.77
2024-02-03T16:34:49.236Z,1.27
2024-02-03T16:37:16.290Z,1.03
2024-02-03T16:39:43.058Z,0.83
2024-02-03T16:42:09.744Z,0.83
2024-02-03T16:44:36.377Z,0.80
2024-02-03T16:47:03.064Z,0.97
2024-02-03T16:49:29.807Z,0.70
2024-02-03T16:51:57.665Z,0.93
2024-02-03T16:54:24.441Z,1.20
2024-02-03T16:56:51.112Z,1.13
2024-02-03T16:59:17.776Z,0.73
2024-02-03T17:01:46.490Z,0.90
2024-02-03T17:04:19.264Z,1.30
2024-02-03T17:06:49.335Z,1.10
2024-02-03T17:09:19.944Z,1.03
2024-02-03T17:11:46.700Z,0.67
2024-02-03T17:14:14.967Z,0.63
2024-02-03T17:16:42.265Z,1.37
2024-02-03T17:19:09.988Z,0.80
2024-02-03T17:21:37.169Z,0.63
2024-02-03T17:24:04.344Z,0.67
2024-02-03T17:26:31.242Z,0.90
2024-02-03T17:28:57.988Z,0.93
2024-02-03T17:31:24.634Z,1.13
2024-02-03T17:33:51.513Z,0.80
2024-02-03T17:36:19.055Z,0.93
2024-02-03T17:38:45.812Z,1.10
2024-02-03T17:41:12.478Z,1.27
2024-02-03T17:43:39.183Z,0.70
2024-02-03T17:46:06.252Z,1.00
2024-02-03T17:48:33.203Z,1.30
2024-02-03T17:51:00.006Z,0.80
2024-02-03T17:53:26.650Z,0.93
2024-02-03T17:55:53.500Z,0.80
2024-02-03T17:58:20.130Z,0.70
2024-02-03T18:00:46.924Z,0.90
2024-02-03T18:03:13.820Z,0.83
2024-02-03T18:05:41.732Z,0.90
2024-02-03T18:08:09.326Z,0.73
2024-02-03T18:10:35.996Z,1.20
2024-02-03T18:13:02.854Z,0.87
2024-02-03T18:15:31.668Z,0.80
2024-02-03T18:17:58.371Z,1.17
2024-02-03T18:20:25.033Z,0.70
2024-02-03T18:22:51.688Z,0.87
2024-02-03T18:25:19.120Z,0.80
2024-02-03T18:27:45.962Z,0.90
2024-02-03T18:30:13.534Z,0.77
2024-02-03T18:32:41.430Z,1.57
2024-02-03T18:35:09.596Z,1.13
2024-02-03T18:37:39.503Z,1.33
2024-02-03T18:40:06.703Z,2.63
2024-02-03T18:42:33.402Z,1.20
2024-02-03T18:45:00.371Z,1.20
2024-02-03T18:47:27.458Z,1.57
2024-02-03T18:49:54.208Z,0.50
2024-02-03T18:52:20.942Z,1.53
2024-02-03T18:54:47.938Z,0.40
2024-02-03T18:57:14.616Z,1.00
2024-02-03T18:59:41.337Z,1.10
2024-02-03T19:02:08.034Z,0.90
2024-02-03T19:04:34.873Z,1.63
2024-02-03T19:07:01.584Z,1.00
2024-02-03T19:09:29.172Z,1.30
2024-02-03T19:11:55.907Z,0.93
2024-02-03T19:14:22.618Z,0.90
2024-02-03T19:16:49.277Z,0.80
2024-02-03T19:19:15.989Z,1.13
2024-02-03T19:21:42.810Z,1.23
2024-02-03T19:24:09.530Z,1.40
2024-02-03T19:26:36.296Z,1.17
2024-02-03T19:29:03.187Z,0.67
2024-02-03T19:31:31.545Z,1.00
2024-02-03T19:33:58.264Z,0.80
2024-02-03T19:36:25.067Z,1.13
2024-02-03T19:38:51.784Z,1.23
2024-02-03T19:41:18.455Z,0.63
2024-02-03T19:43:45.566Z,1.13
2024-02-03T19:46:12.607Z,0.73
2024-02-03T19:48:39.468Z,1.10
2024-02-03T19:51:06.961Z,1.20
2024-02-03T19:53:33.949Z,1.10
2024-02-03T19:56:00.695Z,0.73
2024-02-03T19:58:27.503Z,1.40
2024-02-03T20:00:54.542Z,1.43
2024-02-03T20:03:21.509Z,1.03
2024-02-03T20:05:48.200Z,1.60
2024-02-03T20:08:15.077Z,0.80
2024-02-03T20:10:41.965Z,0.67
2024-02-03T20:13:08.836Z,1.13
2024-02-03T20:15:35.551Z,1.07
2024-02-03T20:18:02.332Z,0.70
2024-02-03T20:20:29.336Z,0.93
2024-02-03T20:22:56.070Z,0.97
2024-02-03T20:25:22.956Z,0.90
2024-02-03T20:27:49.819Z,1.13
2024-02-03T20:30:16.638Z,0.70
2024-02-03T20:32:43.335Z,0.90
2024-02-03T20:35:10.538Z,1.10
2024-02-03T20:37:37.317Z,0.90
2024-02-03T20:40:04.480Z,1.00
2024-02-03T20:42:31.353Z,1.33
2024-02-03T20:44:58.172Z,1.20
2024-02-03T20:47:24.812Z,1.27
2024-02-03T20:49:51.698Z,1.40
2024-02-03T20:52:18.894Z,1.37
2024-02-03T20:54:45.755Z,0.80
2024-02-03T20:57:14.118Z,0.77
2024-02-03T20:59:40.894Z,0.67
2024-02-03T21:02:07.847Z,0.73
2024-02-03T21:04:34.825Z,1.57
2024-02-03T21:07:04.675Z,1.20
2024-02-03T21:09:31.836Z,0.90
2024-02-03T21:11:58.687Z,0.80
2024-02-03T21:14:25.431Z,0.87
2024-02-03T21:16:52.113Z,1.13
2024-02-03T21:19:18.946Z,1.00
2024-02-03T21:21:46.019Z,1.20
2024-02-03T21:24:13.036Z,1.27
2024-02-03T21:26:39.741Z,1.20
2024-02-03T21:29:06.506Z,1.10
2024-02-03T21:31:33.473Z,1.07
2024-02-03T21:34:00.360Z,1.20
2024-02-03T21:36:27.209Z,1.00
2024-02-03T21:38:53.928Z,1.27
2024-02-03T21:41:20.568Z,0.77
2024-02-03T21:43:47.412Z,1.50
2024-02-03T21:46:20.334Z,1.23
2024-02-03T21:48:49.357Z,1.40
2024-02-03T21:51:17.185Z,1.27
2024-02-03T21:53:46.543Z,1.57
2024-02-03T21:56:17.807Z,1.53
2024-02-03T21:58:45.561Z,1.50
2024-02-03T22:01:13.095Z,1.00
2024-02-03T22:03:40.489Z,1.40
2024-02-03T22:06:07.708Z,1.20
2024-02-03T22:08:34.614Z,0.90
2024-02-03T22:11:01.410Z,1.00
2024-02-03T22:13:28.117Z,1.17
2024-02-03T22:15:55.059Z,1.23
2024-02-03T22:18:22.332Z,1.23
2024-02-03T22:20:49.204Z,1.07
2024-02-03T22:23:15.855Z,0.90
2024-02-03T22:25:42.604Z,1.00
2024-02-03T22:28:09.476Z,0.90
2024-02-03T22:30:36.976Z,1.10
2024-02-03T22:33:04.998Z,1.03
2024-02-03T22:35:32.770Z,1.03
2024-02-03T22:37:59.840Z,1.20
2024-02-03T22:40:26.546Z,1.40
2024-02-03T22:42:53.367Z,1.57
2024-02-03T22:45:20.872Z,1.00
2024-02-03T22:47:48.998Z,1.30
2024-02-03T22:50:16.193Z,0.77
2024-02-03T22:52:42.923Z,0.90
2024-02-03T22:55:09.854Z,1.13
2024-02-03T22:57:36.848Z,1.23
2024-02-03T23:00:16.419Z,1.20
2024-02-03T23:02:43.630Z,0.73
2024-02-03T23:05:10.299Z,1.20
2024-02-03T23:07:37.017Z,0.70
2024-02-03T23:10:05.202Z,0.80
2024-02-03T23:12:32.196Z,0.87
2024-02-03T23:14:58.936Z,1.10
2024-02-03T23:17:25.817Z,0.90
2024-02-03T23:19:53.750Z,0.70
2024-02-03T23:22:20.937Z,1.10
2024-02-03T23:24:48.293Z,0.90
2024-02-03T23:27:15.584Z,1.30
2024-02-03T23:29:42.199Z,1.80
2024-02-03T23:32:08.920Z,1.07
2024-02-03T23:34:35.722Z,1.10
2024-02-03T23:37:02.612Z,1.20
2024-02-03T23:39:29.382Z,0.70
2024-02-03T23:41:56.107Z,0.73
2024-02-03T23:44:23.044Z,1.10
2024-02-03T23:46:49.696Z,1.00
2024-02-03T23:49:16.400Z,0.73
2024-02-03T23:51:43.150Z,1.13
2024-02-03T23:54:09.931Z,0.87
2024-02-03T23:56:37.197Z,1.07
2024-02-03T23:59:04.428Z,1.30
